Salem, IL

4:03 AM CDT on October 02, 2014 (GMT -0500)
Flora Municipal | Change Station
CLOSE
Current Station
Airport
Location: Flora,
Elevation: 472 ft
Nearby Weather Stations

Elev 472 ft 38.67 °N, 88.45 °W | Updated 8 minutes ago

Mostly Cloudy
Mostly Cloudy
68 °F
Feels Like 68 °F
N
0
Wind Variable Wind from North

Today
High -- | Low -- °F
--% Chance of Precip.
Yesterday
High -- | Low -- °F
Precip. -- in
6:52 AM 6:36 PM
First Quarter, 56% visible
Pressure 29.89 in
Visibility 10.0 miles
Clouds Clear
Dew Point 61 °F
Humidity 78%
Rainfall 0.00 in
Snow Depth Not available.
UV 0 out of 12
Pollen 5.50 out of 12
Air Quality Not available.
Flu Activity Not available.
METAR KFOA 020855Z AUTO 00000KT 10SM -RA CLR 20/16 A2989 RMK AO2 LTG DSNT W AND NW T02010161

More Conditions Fewer Conditions

Pressure 29.89 in
Visibility 10.0 miles
Clouds Clear
Dew Point 61 °F
Humidity 78%
Rainfall 0.00 in
Snow Depth Not available.
UV 0 out of 12
Pollen 5.50 out of 12
Air Quality Not available.
Flu Activity Not available.
METAR KFOA 020855Z AUTO 00000KT 10SM -RA CLR 20/16 A2989 RMK AO2 LTG DSNT W AND NW T02010161

More Conditions Fewer Conditions

10-Day Weather Forecast

Almanac

Astronomy

Oct. 02, 2014 Rise Set
Actual Time 6:52 AM CDT 6:36 PM CDT
Civil Twilight 6:26 AM CDT 7:03 PM CDT
Nautical Twilight 5:55 AM CDT 7:34 PM CDT
Astronomical Twilight 5:24 AM CDT 8:05 PM CDT
Moon 2:39 PM CDT 12:13 AM CDT
Length of Visible Light 12h 37m
Length of Day
11h 44m
Tomorrow will be 2m 29s shorter.
First Quarter, 56% of the Moon is Illuminated
Today
First Quarter
Oct 8
Full
Oct 15
Last Quarter
Oct 23
New
Oct 30
First Quarter

Today's Extremes

State Highs State Lows

Community

WunderPhotos

Upload Photos

1,758,196 photos uploaded!

WunderBlogs® & News

By Dr. Jeff Masters
Director of Meteorology, Weather Underground
By Kari Strenfel
Meteorologist, Weather Underground
By Christopher C. Burt
Weather Historian, Weather Underground
October 2, 2014
October 2, 2014
October 2, 2014

Nearby

Snow Depth

Station Depth Elevation
No new snow has been reported.

Earthquake Activity

City Distance Mag. Time & Date
No recent earthquake activity has been reported nearby.
Minimum magnitude displayed is 2.5.

Coastal Water Temperatures

Place Temperature
No Stations Reporting

Nearby Weather Stations